Time;durP1;ratioP1;P1;durP2;ratioP2;P2;SDS_P1;SDS_P2;PMS_P1;PMS_P2;Temp;Humidity;BMP_temperature;BMP_pressure;BME280_temperature;BME280_humidity;BME280_pressure;Samples;Min_cycle;Max_cycle;Signal;HPM_P1;HPM_P2
2022/10/07 00:01:20;;;;;;;7.90;2.63;;;11.70;99.90;;;;;;4967288;28;20203;-71
2022/10/07 00:03:46;;;;;;;2.37;1.80;;;11.70;99.90;;;;;;4963536;28;20211;-71
2022/10/07 00:06:16;;;;;;;6.40;3.20;;;11.70;99.90;;;;;;4965586;28;20180;-71
2022/10/07 00:08:45;;;;;;;3.63;2.00;;;11.70;99.90;;;;;;4963907;28;20194;-71
2022/10/07 00:11:22;;;;;;;8.67;3.00;;;11.80;99.90;;;;;;4964934;28;20440;-71
2022/10/07 00:14:00;;;;;;;3.87;2.30;;;11.80;99.90;;;;;;4963533;28;20734;-71
2022/10/07 00:16:33;;;;;;;4.70;2.47;;;11.80;99.90;;;;;;4966903;28;20429;-72
2022/10/07 00:19:01;;;;;;;7.17;2.80;;;11.80;99.90;;;;;;4961677;28;20440;-71
2022/10/07 00:21:31;;;;;;;2.40;1.90;;;11.80;99.90;;;;;;4966826;28;20451;-72
2022/10/07 00:23:57;;;;;;;10.03;2.90;;;11.80;99.90;;;;;;4961752;28;20528;-71
2022/10/07 00:26:25;;;;;;;6.23;2.53;;;11.80;99.90;;;;;;4966410;28;20502;-71
2022/10/07 00:28:51;;;;;;;9.33;2.90;;;11.80;99.90;;;;;;4962336;28;20420;-71
2022/10/07 00:31:22;;;;;;;5.57;2.70;;;11.80;99.90;;;;;;4965341;28;20467;-71
2022/10/07 00:33:48;;;;;;;11.63;2.60;;;11.80;99.90;;;;;;4962750;28;20672;-71
2022/10/07 00:36:18;;;;;;;3.40;2.87;;;11.80;99.90;;;;;;4965259;28;20412;-71
2022/10/07 00:38:44;;;;;;;3.03;1.83;;;11.80;99.90;;;;;;4963235;28;20427;-71
2022/10/07 00:41:18;;;;;;;12.17;2.97;;;11.80;99.90;;;;;;4964363;28;20439;-71
2022/10/07 00:43:43;;;;;;;3.03;2.60;;;11.80;99.90;;;;;;4963181;28;20474;-71
2022/10/07 00:46:21;;;;;;;7.30;3.23;;;11.90;99.90;;;;;;4966478;28;20904;-71
2022/10/07 00:48:46;;;;;;;3.33;2.70;;;11.90;99.90;;;;;;4962852;28;20179;-71
2022/10/07 00:51:15;;;;;;;5.10;2.80;;;11.90;99.90;;;;;;4964103;28;21023;-71
2022/10/07 00:53:45;;;;;;;4.43;2.53;;;11.90;99.90;;;;;;4964405;28;20191;-71
2022/10/07 00:56:11;;;;;;;4.17;2.93;;;11.90;99.90;;;;;;4964924;28;20423;-70
2022/10/07 00:58:40;;;;;;;11.13;2.90;;;11.90;99.90;;;;;;4964029;28;20428;-71
2022/10/07 02:31:46;;;;;;;9.73;3.53;;;12.20;99.90;;;;;;5564793;23;20514;-69
2022/10/07 02:34:15;;;;;;;7.73;3.73;;;12.20;99.90;;;;;;4941140;28;20425;-71
2022/10/07 02:36:46;;;;;;;11.60;3.10;;;12.20;99.90;;;;;;4951349;28;20428;-71
2022/10/07 02:39:12;;;;;;;18.43;3.67;;;12.20;99.90;;;;;;4948337;29;20805;-71
2022/10/07 02:41:50;;;;;;;8.33;2.90;;;12.20;99.90;;;;;;4953241;29;20441;-72
2022/10/07 02:44:29;;;;;;;13.53;4.23;;;12.20;99.90;;;;;;4950342;29;20623;-72
2022/10/07 02:47:02;;;;;;;6.57;2.93;;;12.20;99.90;;;;;;4955802;28;20431;-71
2022/10/07 02:49:30;;;;;;;7.70;3.37;;;12.20;99.90;;;;;;4955755;29;20412;-72
2022/10/07 02:52:01;;;;;;;5.63;3.70;;;12.20;99.90;;;;;;4955646;28;20731;-72
2022/10/07 02:54:33;;;;;;;5.60;3.70;;;12.20;99.90;;;;;;4963547;28;20972;-71
2022/10/07 02:57:00;;;;;;;7.53;3.43;;;12.20;99.90;;;;;;4952684;29;20509;-72
2022/10/07 02:59:27;;;;;;;6.67;3.13;;;12.20;99.90;;;;;;4955594;28;20511;-72
2022/10/07 03:01:56;;;;;;;6.20;3.37;;;12.20;99.90;;;;;;4955252;28;20490;-71
2022/10/07 03:04:22;;;;;;;8.00;3.10;;;12.20;99.90;;;;;;4955503;29;20505;-71
2022/10/07 03:06:48;;;;;;;15.43;3.27;;;12.20;99.90;;;;;;4955084;29;20463;-71
2022/10/07 03:09:14;;;;;;;7.23;4.20;;;12.20;99.90;;;;;;4955231;29;20328;-71
2022/10/07 03:11:39;;;;;;;4.97;3.50;;;12.10;99.90;;;;;;4955223;28;21029;-71
2022/10/07 03:14:05;;;;;;;13.67;4.27;;;12.10;99.90;;;;;;4955296;29;20215;-72
2022/10/07 03:16:31;;;;;;;7.90;3.33;;;12.10;99.90;;;;;;4955421;28;20185;-72
2022/10/07 03:19:00;;;;;;;5.53;3.37;;;12.10;99.90;;;;;;4954818;28;20914;-72
2022/10/07 03:21:26;;;;;;;5.20;3.10;;;12.10;99.90;;;;;;4955070;28;20456;-72
2022/10/07 03:23:52;;;;;;;8.70;3.90;;;12.10;99.90;;;;;;4954719;28;20515;-73
2022/10/07 03:26:18;;;;;;;7.13;3.90;;;12.10;99.90;;;;;;4955545;28;20208;-72
2022/10/07 03:28:45;;;;;;;8.07;3.60;;;12.10;99.90;;;;;;4954429;28;20460;-72
2022/10/07 03:31:13;;;;;;;4.43;3.67;;;12.10;99.90;;;;;;4954677;28;20221;-72
2022/10/07 03:33:38;;;;;;;9.10;3.53;;;12.10;99.90;;;;;;4953692;28;20462;-72
2022/10/07 03:36:06;;;;;;;5.37;3.00;;;12.20;99.90;;;;;;4954943;28;20476;-72
2022/10/07 03:38:32;;;;;;;6.33;3.50;;;12.20;99.90;;;;;;4954485;28;20185;-71
2022/10/07 03:41:00;;;;;;;6.40;2.93;;;12.20;99.90;;;;;;4946694;29;20440;-71
2022/10/07 03:43:26;;;;;;;10.67;3.60;;;12.20;99.90;;;;;;4954451;28;20225;-71
2022/10/07 03:45:52;;;;;;;8.37;3.10;;;12.10;99.90;;;;;;4949597;29;20434;-72
2022/10/07 03:48:17;;;;;;;6.87;3.70;;;12.10;99.90;;;;;;4954432;29;20428;-72
2022/10/07 03:50:55;;;;;;;6.03;3.60;;;12.10;99.90;;;;;;4954247;29;20181;-71
2022/10/07 03:53:20;;;;;;;8.93;3.17;;;12.10;99.90;;;;;;4954651;28;20180;-72
2022/10/07 03:55:46;;;;;;;5.07;3.30;;;12.20;99.90;;;;;;4954325;29;20431;-71
2022/10/07 03:58:12;;;;;;;6.10;3.03;;;12.20;99.90;;;;;;4954350;28;20181;-72
2022/10/07 04:00:39;;;;;;;7.10;3.60;;;12.20;99.90;;;;;;4954159;29;20180;-72
2022/10/07 04:03:06;;;;;;;11.13;4.17;;;12.20;99.90;;;;;;4954698;28;20267;-72
2022/10/07 04:05:32;;;;;;;11.40;3.80;;;12.20;99.90;;;;;;4953908;28;20425;-72
2022/10/07 04:07:57;;;;;;;5.97;3.73;;;12.20;99.90;;;;;;4954206;29;20416;-71
2022/10/07 04:10:23;;;;;;;6.60;3.70;;;12.20;99.90;;;;;;4954190;28;20185;-71
2022/10/07 04:12:52;;;;;;;5.00;3.13;;;12.20;99.90;;;;;;4954034;29;20197;-71
2022/10/07 04:15:19;;;;;;;4.00;3.27;;;12.20;99.90;;;;;;4954107;28;20192;-71
2022/10/07 04:17:46;;;;;;;6.97;3.47;;;12.20;99.90;;;;;;4953840;28;20458;-72
2022/10/07 04:20:14;;;;;;;6.77;3.20;;;12.20;99.90;;;;;;4953918;28;20424;-71
2022/10/07 04:22:39;;;;;;;9.20;3.43;;;12.20;99.90;;;;;;4953616;29;20502;-72
2022/10/07 04:27:55;;;;;;;11.23;3.60;;;12.20;99.90;;;;;;4953978;29;20211;-72
2022/10/07 04:30:22;;;;;;;12.10;3.93;;;12.20;99.90;;;;;;4953982;28;20424;-72
2022/10/07 04:32:49;;;;;;;7.07;3.50;;;12.20;99.90;;;;;;4954148;28;20468;-71
2022/10/07 04:35:15;;;;;;;5.30;3.43;;;12.20;99.90;;;;;;4956198;28;20994;-70
2022/10/07 04:37:42;;;;;;;7.20;4.20;;;12.20;99.90;;;;;;4953748;29;20963;-72
2022/10/07 04:40:08;;;;;;;15.27;5.20;;;12.20;99.90;;;;;;4953934;28;20416;-71
2022/10/07 04:43:19;;;;;;;12.53;4.30;;;12.20;99.90;;;;;;4953657;29;20492;-71
2022/10/07 04:45:20;;;;;;;9.60;4.77;;;12.20;99.90;;;;;;4946706;28;20433;-72
2022/10/07 04:47:45;;;;;;;10.47;3.50;;;12.20;99.90;;;;;;4951929;29;20807;-71
2022/10/07 04:50:11;;;;;;;4.93;3.73;;;12.20;99.90;;;;;;4953700;28;20200;-71
2022/10/07 04:52:41;;;;;;;11.17;4.33;;;12.20;99.90;;;;;;4953623;29;20196;-73
2022/10/07 04:55:08;;;;;;;11.33;3.90;;;12.20;99.90;;;;;;4953878;28;20416;-70
2022/10/07 04:57:33;;;;;;;7.90;3.03;;;12.20;99.90;;;;;;4953439;29;20504;-73
2022/10/07 05:00:00;;;;;;;5.57;3.10;;;12.20;99.90;;;;;;4953258;28;20532;-71
2022/10/07 05:02:26;;;;;;;6.90;4.20;;;12.20;99.90;;;;;;4953428;29;20211;-72
2022/10/07 05:04:51;;;;;;;9.73;4.60;;;12.20;99.90;;;;;;4953169;28;20424;-72
2022/10/07 05:07:17;;;;;;;10.20;3.40;;;12.20;99.90;;;;;;4953547;29;20188;-70
2022/10/07 05:09:43;;;;;;;7.60;3.60;;;12.20;99.90;;;;;;4953018;28;20264;-72
2022/10/07 05:12:09;;;;;;;7.03;3.40;;;12.20;99.90;;;;;;4953633;28;20238;-71
2022/10/07 05:14:34;;;;;;;7.50;3.83;;;12.20;99.90;;;;;;4953182;28;20191;-71
2022/10/07 05:17:00;;;;;;;5.60;3.33;;;12.20;99.90;;;;;;4953418;28;20208;-71
2022/10/07 05:19:25;;;;;;;8.07;4.07;;;12.20;99.90;;;;;;4953048;28;20189;-71
2022/10/07 05:21:51;;;;;;;7.17;4.00;;;12.20;99.90;;;;;;4944991;28;20293;-70
2022/10/07 05:24:16;;;;;;;5.97;3.80;;;12.20;99.90;;;;;;4944993;28;20315;-72
2022/10/07 05:26:42;;;;;;;7.97;3.80;;;12.20;99.90;;;;;;4950135;28;20197;-72
2022/10/07 05:29:08;;;;;;;4.50;3.43;;;12.30;99.90;;;;;;4958755;28;20179;-72
2022/10/07 05:31:33;;;;;;;4.20;3.43;;;12.30;99.90;;;;;;4951857;28;20309;-72
2022/10/07 05:33:59;;;;;;;7.27;3.60;;;12.30;99.90;;;;;;4952433;28;20559;-73
2022/10/07 05:36:25;;;;;;;7.27;3.70;;;12.30;99.90;;;;;;4951838;28;20196;-72
2022/10/07 05:38:56;;;;;;;3.77;2.90;;;12.30;99.90;;;;;;4952193;28;20185;-73
2022/10/07 05:41:23;;;;;;;8.23;3.13;;;12.30;99.90;;;;;;4952760;28;20838;-73
2022/10/07 05:43:48;;;;;;;9.73;3.17;;;12.30;99.90;;;;;;4952667;28;20499;-72
2022/10/07 05:46:16;;;;;;;9.30;3.30;;;12.30;99.90;;;;;;4946461;28;20503;-73
2022/10/07 05:48:50;;;;;;;8.30;3.23;;;12.30;99.90;;;;;;4953883;28;20187;-72
2022/10/07 05:51:17;;;;;;;8.20;3.70;;;12.30;99.90;;;;;;4936678;29;20452;-73
2022/10/07 05:53:45;;;;;;;6.63;3.90;;;12.40;99.90;;;;;;4954278;28;20416;-73
2022/10/07 05:56:14;;;;;;;11.20;4.13;;;12.40;99.90;;;;;;4959407;28;20937;-72
2022/10/07 05:58:40;;;;;;;7.67;4.53;;;12.40;99.90;;;;;;4959398;28;20426;-73
2022/10/07 06:01:12;;;;;;;4.73;3.73;;;12.40;99.90;;;;;;4957272;28;20542;-72
2022/10/07 06:03:38;;;;;;;6.30;3.83;;;12.40;99.90;;;;;;4957351;28;20460;-72
2022/10/07 06:06:04;;;;;;;21.63;3.77;;;12.40;99.90;;;;;;4955846;28;20859;-72
2022/10/07 06:08:30;;;;;;;13.67;4.17;;;12.50;99.90;;;;;;4956460;28;20187;-72
2022/10/07 06:13:51;;;;;;;10.33;3.70;;;12.60;99.90;;;;;;4956196;29;20688;-72
2022/10/07 06:16:17;;;;;;;9.97;3.40;;;12.70;99.90;;;;;;4955762;28;20416;-72
2022/10/07 06:18:43;;;;;;;7.70;3.30;;;12.70;99.90;;;;;;4956019;28;20535;-72
2022/10/07 06:21:09;;;;;;;8.53;4.17;;;12.80;99.90;;;;;;4956135;28;20620;-71
2022/10/07 06:23:34;;;;;;;11.40;3.03;;;12.90;99.90;;;;;;4956078;28;20881;-70
2022/10/07 06:26:09;;;;;;;7.37;3.50;;;12.90;99.90;;;;;;4956903;28;20180;-72
2022/10/07 06:28:39;;;;;;;9.37;4.10;;;13.00;99.90;;;;;;4956773;28;20181;-71
2022/10/07 06:31:10;;;;;;;3.60;3.23;;;13.20;99.90;;;;;;4955809;28;20948;-72
2022/10/07 06:33:37;;;;;;;18.57;4.23;;;13.20;99.90;;;;;;4956576;28;20428;-71
2022/10/07 06:36:10;;;;;;;6.20;3.63;;;13.40;99.90;;;;;;4955316;28;20443;-72
2022/10/07 06:38:36;;;;;;;8.00;4.30;;;13.60;99.90;;;;;;4956105;28;20428;-71
2022/10/07 06:41:03;;;;;;;7.80;3.83;;;13.80;99.90;;;;;;4955173;28;20507;-71
2022/10/07 06:43:31;;;;;;;10.83;4.60;;;14.10;99.90;;;;;;4956098;28;20296;-71
2022/10/07 06:46:01;;;;;;;4.67;4.30;;;14.50;99.90;;;;;;4955164;28;20416;-71
2022/10/07 06:48:28;;;;;;;16.27;4.23;;;14.70;99.90;;;;;;4955528;28;20864;-72
2022/10/07 06:50:57;;;;;;;7.03;4.03;;;14.90;99.90;;;;;;4955433;28;20452;-71
2022/10/07 06:53:23;;;;;;;10.47;4.30;;;15.40;99.90;;;;;;4955752;28;20427;-72
2022/10/07 06:55:50;;;;;;;7.40;3.97;;;16.10;99.90;;;;;;4955863;28;20431;-71
2022/10/07 06:58:17;;;;;;;7.37;3.60;;;16.80;99.90;;;;;;4956184;28;20486;-72
2022/10/07 07:00:46;;;;;;;10.33;4.60;;;17.20;99.90;;;;;;4955393;29;20435;-72
2022/10/07 07:03:12;;;;;;;5.47;4.30;;;17.80;99.90;;;;;;4956006;28;20455;-72
2022/10/07 07:05:38;;;;;;;12.60;4.40;;;18.20;99.90;;;;;;4956199;28;20940;-71
2022/10/07 07:08:04;;;;;;;7.67;4.93;;;19.00;99.90;;;;;;4955307;28;20192;-72
2022/10/07 07:10:30;;;;;;;8.47;4.23;;;19.70;99.90;;;;;;4955346;28;20412;-71
2022/10/07 07:12:56;;;;;;;9.30;4.40;;;20.00;99.90;;;;;;4955258;29;20197;-72
2022/10/07 07:15:22;;;;;;;10.90;4.40;;;20.40;99.90;;;;;;4954222;29;20423;-72
2022/10/07 07:17:48;;;;;;;10.90;5.17;;;20.80;99.90;;;;;;4954956;28;20184;-71
2022/10/07 07:20:14;;;;;;;8.97;4.70;;;21.30;99.90;;;;;;4955073;28;20426;-72
2022/10/07 07:22:42;;;;;;;8.20;4.20;;;21.50;99.90;;;;;;4954766;28;20208;-72
2022/10/07 07:25:10;;;;;;;6.77;4.60;;;21.80;99.90;;;;;;4954938;28;20425;-71
2022/10/07 07:27:36;;;;;;;8.70;5.10;;;21.70;99.90;;;;;;4954910;28;20463;-71
2022/10/07 07:30:02;;;;;;;6.50;4.37;;;21.60;99.90;;;;;;4954909;28;20448;-72
2022/10/07 07:32:29;;;;;;;13.00;4.80;;;21.30;99.90;;;;;;4954779;28;20267;-71
2022/10/07 07:34:55;;;;;;;10.57;5.30;;;20.90;99.90;;;;;;4954812;28;20424;-72
2022/10/07 07:37:21;;;;;;;9.03;5.40;;;20.80;99.90;;;;;;4955007;28;20456;-72
2022/10/07 07:39:46;;;;;;;13.73;4.87;;;20.90;99.90;;;;;;4955026;28;20420;-72
2022/10/07 07:42:12;;;;;;;13.33;6.10;;;21.20;99.90;;;;;;4954678;29;20491;-72
2022/10/07 07:44:38;;;;;;;10.80;5.60;;;21.60;99.90;;;;;;4954313;28;20286;-72
2022/10/07 07:47:05;;;;;;;10.00;5.40;;;21.70;99.90;;;;;;4947955;29;20621;-72
2022/10/07 07:49:32;;;;;;;8.93;5.30;;;21.70;99.90;;;;;;4954234;28;20416;-72
2022/10/07 07:51:58;;;;;;;11.77;5.37;;;21.60;99.90;;;;;;4953900;29;20444;-72
2022/10/07 07:54:26;;;;;;;11.70;5.10;;;21.80;99.90;;;;;;4954483;28;20925;-72
2022/10/07 07:56:53;;;;;;;13.77;5.77;;;21.80;99.90;;;;;;4954091;28;20424;-72
2022/10/07 07:59:19;;;;;;;9.87;5.90;;;22.20;99.90;;;;;;4954422;28;20482;-72
2022/10/07 08:01:44;;;;;;;6.90;6.00;;;22.10;99.90;;;;;;4954006;28;20476;-72
2022/10/07 08:04:12;;;;;;;12.13;5.23;;;22.10;99.90;;;;;;4954271;28;20211;-72
2022/10/07 08:06:39;;;;;;;16.60;5.90;;;22.50;99.90;;;;;;4954268;28;20611;-72
2022/10/07 08:09:04;;;;;;;10.90;5.00;;;22.50;99.90;;;;;;4954142;28;20456;-71
2022/10/07 08:11:31;;;;;;;9.00;5.27;;;22.70;99.90;;;;;;4954105;28;20475;-72
2022/10/07 08:13:57;;;;;;;13.57;4.43;;;23.00;99.90;;;;;;4955255;28;20230;-72
2022/10/07 08:16:25;;;;;;;8.43;5.13;;;23.30;99.90;;;;;;4955582;28;20428;-72
2022/10/07 08:18:53;;;;;;;7.83;4.00;;;23.00;99.90;;;;;;4953410;28;20523;-73
2022/10/07 08:21:21;;;;;;;4.03;3.30;;;23.30;99.90;;;;;;4954156;28;20444;-72
2022/10/07 08:23:50;;;;;;;13.50;4.10;;;23.30;99.90;;;;;;4953872;29;20534;-72
2022/10/07 08:26:15;;;;;;;4.40;2.60;;;23.10;99.90;;;;;;4953818;28;20511;-73
2022/10/07 08:28:41;;;;;;;6.37;2.90;;;23.20;99.90;;;;;;4953724;29;21037;-72
2022/10/07 08:31:11;;;;;;;6.17;2.73;;;22.60;99.90;;;;;;4953504;28;20259;-72
2022/10/07 08:33:39;;;;;;;7.50;2.20;;;22.80;99.90;;;;;;4951055;29;20208;-72
2022/10/07 08:36:06;;;;;;;3.73;2.67;;;23.10;99.90;;;;;;4953856;28;20443;-72
2022/10/07 08:38:37;;;;;;;2.17;2.00;;;23.20;99.90;;;;;;4953344;28;20793;-72
2022/10/07 08:41:27;;;;;;;6.63;2.90;;;23.40;99.90;;;;;;4946960;29;20443;-72
2022/10/07 08:43:53;;;;;;;5.67;2.50;;;23.40;99.90;;;;;;4952892;29;20464;-72
2022/10/07 08:46:27;;;;;;;5.73;2.53;;;23.10;99.90;;;;;;4953991;28;20432;-72
2022/10/07 08:49:09;;;;;;;8.83;2.60;;;23.10;99.90;;;;;;4953262;29;20432;-72
2022/10/07 08:51:48;;;;;;;3.73;2.20;;;23.00;99.90;;;;;;4953412;28;20444;-71
2022/10/07 08:54:25;;;;;;;4.60;2.97;;;23.10;99.90;;;;;;4953552;28;20511;-72
2022/10/07 08:56:52;;;;;;;2.63;2.43;;;23.00;99.90;;;;;;4953316;28;20462;-72
2022/10/07 08:59:17;;;;;;;3.80;2.70;;;23.00;99.90;;;;;;4953659;28;20440;-72
2022/10/07 09:01:54;;;;;;;14.73;2.87;;;23.10;99.90;;;;;;4953222;28;20587;-73
2022/10/07 09:04:59;;;;;;;4.40;2.80;;;23.30;99.90;;;;;;4953291;28;20219;-73
2022/10/07 09:07:34;;;;;;;4.13;2.80;;;23.80;99.90;;;;;;4953476;28;20475;-73
2022/10/07 09:10:09;;;;;;;3.80;2.47;;;23.80;99.90;;;;;;4951613;29;20511;-72
2022/10/07 09:12:59;;;;;;;2.97;2.70;;;23.70;99.90;;;;;;4953110;28;20846;-72
2022/10/07 09:15:53;;;;;;;5.93;3.40;;;23.90;99.90;;;;;;4948823;29;20925;-73
2022/10/07 09:18:24;;;;;;;4.40;3.27;;;24.00;99.90;;;;;;4951885;29;20416;-72
2022/10/07 09:20:55;;;;;;;3.43;2.93;;;23.60;99.90;;;;;;4953231;28;20423;-72
2022/10/07 09:23:32;;;;;;;3.60;2.77;;;23.70;99.90;;;;;;4953224;28;20542;-73
2022/10/07 09:25:58;;;;;;;4.53;2.80;;;23.90;99.90;;;;;;4953237;28;20979;-73
2022/10/07 09:28:30;;;;;;;4.93;3.33;;;24.00;99.90;;;;;;4953147;28;20472;-72
2022/10/07 09:30:58;;;;;;;9.53;3.07;;;24.00;99.90;;;;;;4954256;28;20196;-73
2022/10/07 09:33:24;;;;;;;6.27;2.77;;;24.00;99.90;;;;;;4957245;28;20432;-73
2022/10/07 09:35:55;;;;;;;5.40;3.50;;;23.90;99.90;;;;;;4956730;28;20829;-72
2022/10/07 09:38:48;;;;;;;6.03;3.17;;;23.80;99.90;;;;;;4957136;28;21119;-72
2022/10/07 09:41:19;;;;;;;4.50;3.27;;;23.80;99.90;;;;;;4952001;29;20448;-73
2022/10/07 09:44:14;;;;;;;7.57;3.37;;;24.00;99.90;;;;;;4956723;29;20873;-73
2022/10/07 09:46:45;;;;;;;9.70;3.40;;;24.20;99.90;;;;;;4954320;29;20498;-72
2022/10/07 09:49:28;;;;;;;5.93;2.90;;;24.10;99.90;;;;;;4956672;28;20413;-73
2022/10/07 09:52:20;;;;;;;6.43;3.50;;;24.50;99.90;;;;;;4956279;29;20428;-72
2022/10/07 09:54:49;;;;;;;3.80;3.43;;;24.70;99.90;;;;;;4956556;28;20424;-73
2022/10/07 09:57:28;;;;;;;5.43;3.10;;;24.80;99.90;;;;;;4956581;29;20432;-73
2022/10/07 10:00:12;;;;;;;8.20;4.17;;;24.70;99.90;;;;;;4956261;28;20415;-73
2022/10/07 10:02:39;;;;;;;4.53;3.20;;;24.30;99.90;;;;;;4956201;29;20991;-73
2022/10/07 10:05:17;;;;;;;9.83;3.40;;;24.40;99.90;;;;;;4956693;28;20475;-73
2022/10/07 10:07:46;;;;;;;7.40;3.70;;;24.80;99.90;;;;;;4956201;28;20439;-72
2022/10/07 10:10:19;;;;;;;3.07;2.77;;;25.10;99.90;;;;;;4956013;28;20952;-72
2022/10/07 10:12:48;;;;;;;5.33;3.73;;;25.30;99.90;;;;;;4956112;29;20451;-72
2022/10/07 10:15:35;;;;;;;5.37;3.47;;;25.20;99.90;;;;;;4956320;28;20475;-72
2022/10/07 10:18:01;;;;;;;9.23;3.63;;;25.00;99.90;;;;;;4955136;29;20466;-72
2022/10/07 10:20:30;;;;;;;8.27;3.50;;;24.90;99.90;;;;;;4956151;28;20424;-72
2022/10/07 10:22:57;;;;;;;4.73;3.57;;;24.70;99.90;;;;;;4955883;28;20467;-72
2022/10/07 10:28:44;;;;;;;5.57;4.00;;;24.90;99.90;;;;;;4951456;29;20412;-72
2022/10/07 10:31:23;;;;;;;9.73;3.40;;;24.60;99.90;;;;;;4953419;29;20454;-72
2022/10/07 10:33:58;;;;;;;3.97;3.13;;;24.80;99.90;;;;;;4955852;28;20807;-73
2022/10/07 10:36:26;;;;;;;6.07;3.33;;;24.70;99.90;;;;;;4955843;28;20455;-72
2022/10/07 10:39:10;;;;;;;7.17;3.03;;;24.80;99.90;;;;;;4955807;28;20416;-73
2022/10/07 10:41:52;;;;;;;8.43;3.80;;;24.50;99.90;;;;;;4952071;28;20475;-72
2022/10/07 10:44:36;;;;;;;3.50;2.97;;;24.30;99.90;;;;;;4954248;28;20826;-73
2022/10/07 10:47:24;;;;;;;5.97;3.87;;;24.20;99.90;;;;;;4948530;29;20739;-73
2022/10/07 10:50:11;;;;;;;5.80;3.83;;;24.50;99.90;;;;;;4954365;29;20428;-73
2022/10/07 10:53:04;;;;;;;4.60;3.30;;;24.80;99.90;;;;;;4955275;28;20480;-72
2022/10/07 10:55:48;;;;;;;4.47;3.47;;;25.00;99.90;;;;;;4956257;28;20420;-72
2022/10/07 10:58:24;;;;;;;4.43;3.43;;;24.60;99.90;;;;;;4949897;29;20898;-72
2022/10/07 11:01:26;;;;;;;9.00;3.93;;;24.60;99.90;;;;;;4955575;28;20989;-72
2022/10/07 11:04:17;;;;;;;3.97;3.47;;;24.90;99.90;;;;;;4955400;28;20971;-72
2022/10/07 11:06:47;;;;;;;7.17;3.80;;;25.10;99.90;;;;;;4953425;29;20994;-73
2022/10/07 11:09:29;;;;;;;11.73;3.83;;;24.90;99.90;;;;;;4955187;28;20431;-73
2022/10/07 11:11:59;;;;;;;5.30;4.00;;;24.80;99.90;;;;;;4955233;29;20444;-72
2022/10/07 11:14:25;;;;;;;5.03;3.30;;;24.90;99.90;;;;;;4955283;28;20447;-73
2022/10/07 11:17:01;;;;;;;5.43;3.37;;;24.90;99.90;;;;;;4955101;29;20443;-73
2022/10/07 11:19:34;;;;;;;7.00;3.50;;;24.80;99.90;;;;;;4954957;28;20792;-72
2022/10/07 11:22:01;;;;;;;6.00;3.50;;;24.70;99.90;;;;;;4947388;29;20941;-72
2022/10/07 11:24:33;;;;;;;4.03;3.47;;;24.40;99.90;;;;;;4955067;28;20470;-73
2022/10/07 11:27:09;;;;;;;6.83;4.23;;;24.20;99.90;;;;;;4955039;29;20449;-73
2022/10/07 11:29:47;;;;;;;3.50;3.20;;;24.20;99.90;;;;;;4954543;28;20471;-73
2022/10/07 11:32:34;;;;;;;5.57;4.00;;;24.20;99.90;;;;;;4949082;29;20456;-73
2022/10/07 11:35:03;;;;;;;6.40;3.90;;;24.10;99.90;;;;;;4955079;28;20420;-72
2022/10/07 11:37:38;;;;;;;5.50;3.67;;;23.90;99.90;;;;;;4954883;28;20925;-72
2022/10/07 11:40:05;;;;;;;6.30;4.90;;;23.90;99.90;;;;;;4947415;29;20495;-73
2022/10/07 11:42:39;;;;;;;6.60;4.40;;;24.00;99.90;;;;;;4954924;29;20454;-72
2022/10/07 11:45:27;;;;;;;5.37;4.40;;;24.30;99.90;;;;;;4939931;29;20421;-71
2022/10/07 11:47:58;;;;;;;7.50;4.73;;;24.40;99.90;;;;;;4946440;28;20483;-73
2022/10/07 11:50:30;;;;;;;5.00;4.33;;;24.00;99.90;;;;;;4949622;28;21226;-73
2022/10/07 11:53:04;;;;;;;6.87;4.07;;;24.10;99.90;;;;;;4951629;28;20435;-74
2022/10/07 11:55:59;;;;;;;5.20;4.17;;;23.70;99.90;;;;;;4955284;29;20420;-73
2022/10/07 11:58:30;;;;;;;5.20;4.57;;;23.90;99.90;;;;;;4928140;29;20426;-73
2022/10/07 12:01:29;;;;;;;8.00;4.70;;;23.60;99.90;;;;;;4963867;28;20515;-72
2022/10/07 12:04:01;;;;;;;8.03;4.50;;;23.30;99.90;;;;;;4969434;28;20475;-71
2022/10/07 12:06:26;;;;;;;12.40;4.17;;;22.70;99.90;;;;;;4954520;28;20435;-70
2022/10/07 12:08:53;;;;;;;6.17;5.10;;;22.50;99.90;;;;;;4954445;28;20432;-70
2022/10/07 12:11:19;;;;;;;6.10;4.30;;;22.60;99.90;;;;;;4954182;28;20204;-70
2022/10/07 12:13:49;;;;;;;4.17;3.87;;;22.50;99.90;;;;;;4954265;29;20523;-70
2022/10/07 12:16:27;;;;;;;6.43;5.10;;;22.50;99.90;;;;;;4956646;28;20455;-69
2022/10/07 12:19:09;;;;;;;5.60;5.10;;;22.40;99.90;;;;;;4970279;28;20522;-70
2022/10/07 12:21:58;;;;;;;8.77;4.00;;;22.10;99.90;;;;;;4950547;29;20448;-70
2022/10/07 12:24:24;;;;;;;5.07;4.67;;;22.00;99.90;;;;;;4950380;29;20592;-70
2022/10/07 12:26:50;;;;;;;8.33;4.90;;;22.00;99.90;;;;;;4953948;28;20527;-70
2022/10/07 12:29:26;;;;;;;7.30;5.70;;;21.70;99.90;;;;;;4954086;28;20413;-70
2022/10/07 12:31:51;;;;;;;9.03;5.00;;;21.60;99.90;;;;;;4953997;28;20475;-70
2022/10/07 12:34:39;;;;;;;8.33;5.50;;;21.60;99.90;;;;;;4954060;28;20425;-70
2022/10/07 12:37:39;;;;;;;7.90;5.13;;;21.60;99.90;;;;;;4947581;29;20836;-71
2022/10/07 12:40:19;;;;;;;9.30;4.67;;;21.50;99.90;;;;;;4959776;28;20455;-73
2022/10/07 12:42:53;;;;;;;4.90;4.50;;;21.30;99.90;;;;;;4953773;28;20448;-73
2022/10/07 12:45:21;;;;;;;4.33;3.93;;;21.30;99.90;;;;;;4947183;28;20511;-72
2022/10/07 12:47:49;;;;;;;16.20;5.33;;;21.30;99.90;;;;;;4953084;28;20523;-73
2022/10/07 12:50:17;;;;;;;10.20;4.67;;;21.10;99.90;;;;;;4952859;28;20428;-73
2022/10/07 12:52:53;;;;;;;15.60;5.23;;;21.00;99.90;;;;;;4953072;28;20804;-72
2022/10/07 12:55:36;;;;;;;5.27;4.20;;;20.90;99.90;;;;;;4953484;28;20408;-73
2022/10/07 13:01:16;;;;;;;8.60;4.20;;;20.80;99.90;;;;;;4946445;29;20454;-73
2022/10/07 13:04:17;;;;;;;4.93;4.30;;;21.00;99.90;;;;;;4953126;28;20550;-70
2022/10/07 13:07:42;;;;;;;13.73;5.17;;;21.00;99.90;;;;;;4949155;29;20423;-70
2022/10/07 13:10:29;;;;;;;6.20;4.17;;;20.80;99.90;;;;;;4946186;29;20424;-71
2022/10/07 13:13:03;;;;;;;5.20;4.70;;;20.90;99.90;;;;;;4953005;28;21213;-71
2022/10/07 13:15:41;;;;;;;5.80;5.20;;;20.90;99.90;;;;;;4953342;28;20925;-71
2022/10/07 13:18:16;;;;;;;4.90;4.40;;;20.70;99.90;;;;;;4946262;29;20412;-72
2022/10/07 13:21:04;;;;;;;9.07;5.10;;;20.60;99.90;;;;;;4952703;28;20408;-71
2022/10/07 13:23:31;;;;;;;9.13;4.70;;;20.80;99.90;;;;;;4953085;28;20458;-72
2022/10/07 13:25:58;;;;;;;8.13;4.80;;;20.90;99.90;;;;;;4952970;28;20424;-71
2022/10/07 13:28:30;;;;;;;7.93;4.80;;;21.00;99.90;;;;;;4953211;28;20434;-72
2022/10/07 13:31:15;;;;;;;5.07;4.60;;;20.80;99.90;;;;;;4952632;28;20444;-72
2022/10/07 13:33:42;;;;;;;7.53;6.03;;;20.80;99.90;;;;;;4952882;28;20822;-71
2022/10/07 13:36:17;;;;;;;6.10;5.03;;;20.80;99.90;;;;;;4953182;28;20478;-72
2022/10/07 13:38:45;;;;;;;7.33;4.23;;;20.80;99.90;;;;;;4953362;28;20491;-71
2022/10/07 13:41:27;;;;;;;9.40;4.67;;;20.70;99.90;;;;;;4953195;28;20523;-72
2022/10/07 13:43:59;;;;;;;6.80;3.70;;;20.60;99.90;;;;;;4952551;28;20465;-72
2022/10/07 13:46:27;;;;;;;5.20;4.27;;;20.50;99.90;;;;;;4948676;29;20432;-72
2022/10/07 13:48:57;;;;;;;4.53;4.13;;;20.60;99.90;;;;;;4952665;28;20475;-70
2022/10/07 13:51:28;;;;;;;4.20;3.90;;;20.50;99.90;;;;;;4952820;29;20437;-72
2022/10/07 13:53:59;;;;;;;4.73;4.30;;;20.50;99.90;;;;;;4952975;28;20434;-72
2022/10/07 13:56:37;;;;;;;5.13;4.20;;;20.40;99.90;;;;;;4952882;29;20431;-72
2022/10/07 13:59:05;;;;;;;9.20;4.43;;;20.40;99.90;;;;;;4948912;29;21003;-71
2022/10/07 14:01:36;;;;;;;4.90;4.00;;;20.30;99.90;;;;;;4952596;28;20448;-72
2022/10/07 14:04:07;;;;;;;4.90;4.40;;;20.30;99.90;;;;;;4949082;29;21011;-71
2022/10/07 14:06:42;;;;;;;10.43;4.50;;;20.20;99.90;;;;;;4959507;28;20523;-72
2022/10/07 14:09:45;;;;;;;7.23;4.73;;;20.10;99.90;;;;;;4949712;29;20423;-72
2022/10/07 14:12:21;;;;;;;4.63;4.23;;;20.00;99.90;;;;;;4944374;29;20447;-72
2022/10/07 14:14:54;;;;;;;4.63;4.23;;;19.90;99.90;;;;;;4952616;28;20542;-72
2022/10/07 14:17:38;;;;;;;6.00;4.40;;;19.80;99.90;;;;;;4954793;28;20947;-72
2022/10/07 14:20:15;;;;;;;6.67;4.57;;;19.90;99.90;;;;;;4948766;29;20412;-72
2022/10/07 14:22:42;;;;;;;6.40;5.20;;;19.90;99.90;;;;;;4955869;28;20448;-71
2022/10/07 14:25:21;;;;;;;9.53;5.20;;;19.80;99.90;;;;;;4956379;28;20420;-72
2022/10/07 14:27:52;;;;;;;4.00;3.70;;;19.80;99.90;;;;;;4954214;29;20416;-72
2022/10/07 14:30:25;;;;;;;5.50;4.37;;;19.80;99.90;;;;;;4955975;28;20433;-72
2022/10/07 14:35:47;;;;;;;5.17;4.70;;;19.80;99.90;;;;;;4956095;29;20447;-71
2022/10/07 14:38:25;;;;;;;6.03;4.67;;;19.80;99.90;;;;;;4956057;28;20416;-72
2022/10/07 14:40:51;;;;;;;5.53;3.87;;;19.90;99.90;;;;;;4955998;28;20570;-72
2022/10/07 14:43:17;;;;;;;4.90;4.40;;;19.90;99.90;;;;;;4955910;28;20546;-72
2022/10/07 14:45:43;;;;;;;6.90;4.77;;;20.00;99.90;;;;;;4948275;28;20778;-71
2022/10/07 14:48:12;;;;;;;7.77;4.47;;;20.00;99.90;;;;;;4955835;28;20455;-71
2022/10/07 14:50:39;;;;;;;6.97;4.50;;;19.90;99.90;;;;;;4955270;28;20232;-71
2022/10/07 14:53:04;;;;;;;5.70;4.63;;;19.80;99.90;;;;;;4955611;28;20822;-71